sensor_id;sensor_type;location;lat;lon;timestamp;P1;durP1;ratioP1;P2;durP2;ratioP2
62463;SDS011;48512;48.552;9.380;2023-11-21T00:00:19;5.85;;;1.80;;
62463;SDS011;48512;48.552;9.380;2023-11-21T00:02:46;12.90;;;1.90;;
62463;SDS011;48512;48.552;9.380;2023-11-21T00:05:13;5.25;;;1.60;;
62463;SDS011;48512;48.552;9.380;2023-11-21T00:07:42;6.22;;;1.60;;
62463;SDS011;48512;48.552;9.380;2023-11-21T00:10:09;4.90;;;1.40;;
62463;SDS011;48512;48.552;9.380;2023-11-21T00:12:36;5.93;;;1.80;;
62463;SDS011;48512;48.552;9.380;2023-11-21T00:15:03;6.97;;;1.48;;
62463;SDS011;48512;48.552;9.380;2023-11-21T00:17:31;5.22;;;1.50;;
62463;SDS011;48512;48.552;9.380;2023-11-21T00:19:57;5.35;;;1.60;;
62463;SDS011;48512;48.552;9.380;2023-11-21T00:22:23;5.88;;;1.38;;
62463;SDS011;48512;48.552;9.380;2023-11-21T00:24:49;3.05;;;1.02;;
62463;SDS011;48512;48.552;9.380;2023-11-21T00:27:15;5.13;;;1.55;;
62463;SDS011;48512;48.552;9.380;2023-11-21T00:29:41;4.53;;;1.25;;
62463;SDS011;48512;48.552;9.380;2023-11-21T00:32:07;2.92;;;1.20;;
62463;SDS011;48512;48.552;9.380;2023-11-21T00:34:33;2.67;;;1.50;;
62463;SDS011;48512;48.552;9.380;2023-11-21T00:37:00;7.50;;;1.10;;
62463;SDS011;48512;48.552;9.380;2023-11-21T00:39:26;3.40;;;1.20;;
62463;SDS011;48512;48.552;9.380;2023-11-21T00:41:52;6.35;;;1.23;;
62463;SDS011;48512;48.552;9.380;2023-11-21T00:44:18;3.67;;;1.05;;
62463;SDS011;48512;48.552;9.380;2023-11-21T00:46:44;4.05;;;1.15;;
62463;SDS011;48512;48.552;9.380;2023-11-21T00:49:11;6.85;;;1.35;;
62463;SDS011;48512;48.552;9.380;2023-11-21T00:51:37;4.22;;;1.20;;
62463;SDS011;48512;48.552;9.380;2023-11-21T00:54:03;2.80;;;1.00;;
62463;SDS011;48512;48.552;9.380;2023-11-21T00:56:29;4.75;;;1.10;;
62463;SDS011;48512;48.552;9.380;2023-11-21T00:58:55;4.45;;;1.20;;
62463;SDS011;48512;48.552;9.380;2023-11-21T01:01:21;3.90;;;1.00;;
62463;SDS011;48512;48.552;9.380;2023-11-21T01:03:48;3.88;;;1.20;;
62463;SDS011;48512;48.552;9.380;2023-11-21T01:06:15;5.13;;;1.23;;
62463;SDS011;48512;48.552;9.380;2023-11-21T01:08:41;3.85;;;1.45;;
62463;SDS011;48512;48.552;9.380;2023-11-21T01:11:10;3.75;;;1.17;;
62463;SDS011;48512;48.552;9.380;2023-11-21T01:13:38;2.45;;;1.00;;
62463;SDS011;48512;48.552;9.380;2023-11-21T01:16:05;2.58;;;0.90;;
62463;SDS011;48512;48.552;9.380;2023-11-21T01:18:32;4.90;;;1.10;;
62463;SDS011;48512;48.552;9.380;2023-11-21T01:20:59;4.05;;;1.20;;
62463;SDS011;48512;48.552;9.380;2023-11-21T01:23:27;9.30;;;1.97;;
62463;SDS011;48512;48.552;9.380;2023-11-21T01:25:55;11.27;;;2.15;;
62463;SDS011;48512;48.552;9.380;2023-11-21T01:28:22;5.43;;;2.00;;
62463;SDS011;48512;48.552;9.380;2023-11-21T01:30:48;8.27;;;2.55;;
62463;SDS011;48512;48.552;9.380;2023-11-21T01:33:14;10.85;;;2.35;;
62463;SDS011;48512;48.552;9.380;2023-11-21T01:35:44;13.43;;;1.98;;
62463;SDS011;48512;48.552;9.380;2023-11-21T01:38:12;3.60;;;1.30;;
62463;SDS011;48512;48.552;9.380;2023-11-21T01:40:38;2.67;;;0.90;;
62463;SDS011;48512;48.552;9.380;2023-11-21T01:43:04;5.00;;;0.90;;
62463;SDS011;48512;48.552;9.380;2023-11-21T01:45:30;2.85;;;0.70;;
62463;SDS011;48512;48.552;9.380;2023-11-21T01:48:00;2.72;;;0.88;;
62463;SDS011;48512;48.552;9.380;2023-11-21T01:50:26;3.25;;;0.93;;
62463;SDS011;48512;48.552;9.380;2023-11-21T01:52:54;2.78;;;0.95;;
62463;SDS011;48512;48.552;9.380;2023-11-21T01:55:21;2.45;;;0.90;;
62463;SDS011;48512;48.552;9.380;2023-11-21T01:57:47;2.38;;;0.85;;
62463;SDS011;48512;48.552;9.380;2023-11-21T02:00:14;3.13;;;1.10;;
62463;SDS011;48512;48.552;9.380;2023-11-21T02:02:45;1.77;;;1.08;;
62463;SDS011;48512;48.552;9.380;2023-11-21T02:05:12;4.22;;;1.15;;
62463;SDS011;48512;48.552;9.380;2023-11-21T02:07:40;3.03;;;1.17;;
62463;SDS011;48512;48.552;9.380;2023-11-21T02:10:08;2.25;;;1.08;;
62463;SDS011;48512;48.552;9.380;2023-11-21T02:12:36;1.25;;;0.93;;
62463;SDS011;48512;48.552;9.380;2023-11-21T02:15:02;3.83;;;0.90;;
62463;SDS011;48512;48.552;9.380;2023-11-21T02:17:31;2.72;;;1.02;;
62463;SDS011;48512;48.552;9.380;2023-11-21T02:19:58;2.83;;;0.90;;
62463;SDS011;48512;48.552;9.380;2023-11-21T02:22:26;1.98;;;0.85;;
62463;SDS011;48512;48.552;9.380;2023-11-21T02:24:56;2.40;;;1.05;;
62463;SDS011;48512;48.552;9.380;2023-11-21T02:27:23;2.15;;;0.80;;
62463;SDS011;48512;48.552;9.380;2023-11-21T02:29:50;1.33;;;0.60;;
62463;SDS011;48512;48.552;9.380;2023-11-21T02:32:16;4.40;;;0.60;;
62463;SDS011;48512;48.552;9.380;2023-11-21T02:34:44;1.05;;;0.70;;
62463;SDS011;48512;48.552;9.380;2023-11-21T02:37:11;2.03;;;0.73;;
62463;SDS011;48512;48.552;9.380;2023-11-21T02:39:38;1.65;;;0.73;;
62463;SDS011;48512;48.552;9.380;2023-11-21T02:42:04;1.10;;;0.70;;
62463;SDS011;48512;48.552;9.380;2023-11-21T02:44:30;0.85;;;0.60;;
62463;SDS011;48512;48.552;9.380;2023-11-21T02:46:56;2.35;;;0.80;;
62463;SDS011;48512;48.552;9.380;2023-11-21T02:49:23;1.00;;;0.57;;
62463;SDS011;48512;48.552;9.380;2023-11-21T02:51:49;1.00;;;0.65;;
62463;SDS011;48512;48.552;9.380;2023-11-21T02:54:15;3.08;;;0.70;;
62463;SDS011;48512;48.552;9.380;2023-11-21T02:56:42;3.13;;;0.70;;
62463;SDS011;48512;48.552;9.380;2023-11-21T02:59:08;2.00;;;0.60;;
62463;SDS011;48512;48.552;9.380;2023-11-21T03:01:34;2.47;;;0.82;;
62463;SDS011;48512;48.552;9.380;2023-11-21T03:04:00;5.40;;;0.70;;
62463;SDS011;48512;48.552;9.380;2023-11-21T03:06:27;1.30;;;0.70;;
62463;SDS011;48512;48.552;9.380;2023-11-21T03:08:53;2.40;;;0.88;;
62463;SDS011;48512;48.552;9.380;2023-11-21T03:11:19;18.30;;;6.00;;
62463;SDS011;48512;48.552;9.380;2023-11-21T03:13:45;2.15;;;0.90;;
62463;SDS011;48512;48.552;9.380;2023-11-21T03:16:12;0.77;;;0.60;;
62463;SDS011;48512;48.552;9.380;2023-11-21T03:18:39;3.20;;;0.70;;
62463;SDS011;48512;48.552;9.380;2023-11-21T03:21:06;2.67;;;0.85;;
62463;SDS011;48512;48.552;9.380;2023-11-21T03:23:36;1.17;;;0.70;;
62463;SDS011;48512;48.552;9.380;2023-11-21T03:26:03;2.85;;;0.70;;
62463;SDS011;48512;48.552;9.380;2023-11-21T03:28:29;0.70;;;0.50;;
62463;SDS011;48512;48.552;9.380;2023-11-21T03:30:56;5.30;;;1.10;;
62463;SDS011;48512;48.552;9.380;2023-11-21T03:33:23;2.65;;;0.75;;
62463;SDS011;48512;48.552;9.380;2023-11-21T03:35:50;1.15;;;0.60;;
62463;SDS011;48512;48.552;9.380;2023-11-21T03:38:18;0.90;;;0.45;;
62463;SDS011;48512;48.552;9.380;2023-11-21T03:40:45;1.25;;;0.60;;
62463;SDS011;48512;48.552;9.380;2023-11-21T03:43:11;1.30;;;0.70;;
62463;SDS011;48512;48.552;9.380;2023-11-21T03:45:38;0.93;;;0.50;;
62463;SDS011;48512;48.552;9.380;2023-11-21T03:48:06;0.75;;;0.50;;
62463;SDS011;48512;48.552;9.380;2023-11-21T03:50:32;5.47;;;0.70;;
62463;SDS011;48512;48.552;9.380;2023-11-21T03:52:59;2.10;;;0.43;;
62463;SDS011;48512;48.552;9.380;2023-11-21T03:55:25;1.45;;;0.55;;
62463;SDS011;48512;48.552;9.380;2023-11-21T03:57:51;2.28;;;0.55;;
62463;SDS011;48512;48.552;9.380;2023-11-21T04:00:19;1.08;;;0.50;;
62463;SDS011;48512;48.552;9.380;2023-11-21T04:02:48;1.70;;;0.80;;
62463;SDS011;48512;48.552;9.380;2023-11-21T04:05:14;3.22;;;0.60;;
62463;SDS011;48512;48.552;9.380;2023-11-21T04:07:40;0.65;;;0.60;;
62463;SDS011;48512;48.552;9.380;2023-11-21T04:10:07;1.02;;;0.52;;
62463;SDS011;48512;48.552;9.380;2023-11-21T04:12:35;0.60;;;0.40;;
62463;SDS011;48512;48.552;9.380;2023-11-21T04:15:01;0.52;;;0.52;;
62463;SDS011;48512;48.552;9.380;2023-11-21T04:17:29;1.75;;;0.63;;
62463;SDS011;48512;48.552;9.380;2023-11-21T04:19:56;1.08;;;0.70;;
62463;SDS011;48512;48.552;9.380;2023-11-21T04:22:22;0.70;;;0.50;;
62463;SDS011;48512;48.552;9.380;2023-11-21T04:24:48;1.20;;;0.70;;
62463;SDS011;48512;48.552;9.380;2023-11-21T04:27:14;2.15;;;0.70;;
62463;SDS011;48512;48.552;9.380;2023-11-21T04:29:43;9.25;;;2.78;;
62463;SDS011;48512;48.552;9.380;2023-11-21T04:32:10;4.35;;;1.73;;
62463;SDS011;48512;48.552;9.380;2023-11-21T04:34:36;3.90;;;1.80;;
62463;SDS011;48512;48.552;9.380;2023-11-21T04:37:02;1.92;;;1.17;;
62463;SDS011;48512;48.552;9.380;2023-11-21T04:39:29;4.57;;;1.50;;
62463;SDS011;48512;48.552;9.380;2023-11-21T04:41:55;2.38;;;1.20;;
62463;SDS011;48512;48.552;9.380;2023-11-21T04:44:21;3.47;;;1.20;;
62463;SDS011;48512;48.552;9.380;2023-11-21T04:46:47;2.22;;;0.88;;
62463;SDS011;48512;48.552;9.380;2023-11-21T04:49:13;2.50;;;1.30;;
62463;SDS011;48512;48.552;9.380;2023-11-21T04:51:40;4.28;;;1.73;;
62463;SDS011;48512;48.552;9.380;2023-11-21T04:54:06;1.38;;;0.82;;
62463;SDS011;48512;48.552;9.380;2023-11-21T04:56:32;0.70;;;0.40;;
62463;SDS011;48512;48.552;9.380;2023-11-21T04:58:58;2.65;;;0.88;;
62463;SDS011;48512;48.552;9.380;2023-11-21T05:01:24;3.13;;;0.90;;
62463;SDS011;48512;48.552;9.380;2023-11-21T05:03:50;2.42;;;0.68;;
62463;SDS011;48512;48.552;9.380;2023-11-21T05:06:18;1.45;;;0.90;;
62463;SDS011;48512;48.552;9.380;2023-11-21T05:08:44;4.47;;;2.33;;
62463;SDS011;48512;48.552;9.380;2023-11-21T05:11:10;0.82;;;0.70;;
62463;SDS011;48512;48.552;9.380;2023-11-21T05:13:36;1.83;;;0.60;;
62463;SDS011;48512;48.552;9.380;2023-11-21T05:16:03;0.95;;;0.75;;
62463;SDS011;48512;48.552;9.380;2023-11-21T05:18:33;1.73;;;0.90;;
62463;SDS011;48512;48.552;9.380;2023-11-21T05:21:00;2.42;;;0.90;;
62463;SDS011;48512;48.552;9.380;2023-11-21T05:23:26;0.93;;;0.65;;
62463;SDS011;48512;48.552;9.380;2023-11-21T05:25:52;1.67;;;0.60;;
62463;SDS011;48512;48.552;9.380;2023-11-21T05:28:18;2.30;;;0.70;;
62463;SDS011;48512;48.552;9.380;2023-11-21T05:30:44;1.15;;;0.60;;
62463;SDS011;48512;48.552;9.380;2023-11-21T05:33:10;1.42;;;0.60;;
62463;SDS011;48512;48.552;9.380;2023-11-21T05:35:36;4.32;;;1.52;;
62463;SDS011;48512;48.552;9.380;2023-11-21T05:38:02;15.35;;;3.15;;
62463;SDS011;48512;48.552;9.380;2023-11-21T05:40:29;1.70;;;1.10;;
62463;SDS011;48512;48.552;9.380;2023-11-21T05:42:55;3.60;;;0.70;;
62463;SDS011;48512;48.552;9.380;2023-11-21T05:45:22;2.40;;;0.88;;
62463;SDS011;48512;48.552;9.380;2023-11-21T05:47:48;4.78;;;1.10;;
62463;SDS011;48512;48.552;9.380;2023-11-21T05:50:14;10.88;;;6.25;;
62463;SDS011;48512;48.552;9.380;2023-11-21T05:52:43;7.30;;;4.28;;
62463;SDS011;48512;48.552;9.380;2023-11-21T05:55:10;5.95;;;3.17;;
62463;SDS011;48512;48.552;9.380;2023-11-21T05:57:37;3.80;;;2.00;;
62463;SDS011;48512;48.552;9.380;2023-11-21T06:02:38;7.20;;;2.63;;
62463;SDS011;48512;48.552;9.380;2023-11-21T06:05:08;6.50;;;1.65;;
62463;SDS011;48512;48.552;9.380;2023-11-21T06:10:02;3.05;;;1.52;;
62463;SDS011;48512;48.552;9.380;2023-11-21T06:12:37;2.58;;;1.48;;
62463;SDS011;48512;48.552;9.380;2023-11-21T06:15:04;3.95;;;1.20;;
62463;SDS011;48512;48.552;9.380;2023-11-21T06:17:31;3.70;;;2.00;;
62463;SDS011;48512;48.552;9.380;2023-11-21T06:19:57;2.58;;;1.55;;
62463;SDS011;48512;48.552;9.380;2023-11-21T06:22:23;1.95;;;1.50;;
62463;SDS011;48512;48.552;9.380;2023-11-21T06:24:50;2.38;;;1.60;;
62463;SDS011;48512;48.552;9.380;2023-11-21T06:27:16;3.90;;;1.10;;
62463;SDS011;48512;48.552;9.380;2023-11-21T06:29:42;3.38;;;1.27;;
62463;SDS011;48512;48.552;9.380;2023-11-21T06:32:08;2.55;;;1.30;;
62463;SDS011;48512;48.552;9.380;2023-11-21T06:34:34;2.65;;;1.30;;
62463;SDS011;48512;48.552;9.380;2023-11-21T06:37:00;2.25;;;1.10;;
62463;SDS011;48512;48.552;9.380;2023-11-21T06:39:26;3.20;;;1.10;;
62463;SDS011;48512;48.552;9.380;2023-11-21T06:41:53;5.93;;;1.45;;
62463;SDS011;48512;48.552;9.380;2023-11-21T06:44:20;2.10;;;1.30;;
62463;SDS011;48512;48.552;9.380;2023-11-21T06:46:46;2.10;;;1.10;;
62463;SDS011;48512;48.552;9.380;2023-11-21T06:49:12;4.60;;;1.10;;
62463;SDS011;48512;48.552;9.380;2023-11-21T06:51:38;4.07;;;1.02;;
62463;SDS011;48512;48.552;9.380;2023-11-21T06:54:05;3.13;;;1.20;;
62463;SDS011;48512;48.552;9.380;2023-11-21T06:56:31;2.58;;;1.30;;
62463;SDS011;48512;48.552;9.380;2023-11-21T06:58:58;4.07;;;1.20;;
62463;SDS011;48512;48.552;9.380;2023-11-21T07:01:24;4.50;;;1.50;;
62463;SDS011;48512;48.552;9.380;2023-11-21T07:03:50;3.10;;;1.60;;
62463;SDS011;48512;48.552;9.380;2023-11-21T07:06:16;4.10;;;1.85;;
62463;SDS011;48512;48.552;9.380;2023-11-21T07:08:42;2.35;;;1.00;;
62463;SDS011;48512;48.552;9.380;2023-11-21T07:11:09;5.63;;;1.50;;
62463;SDS011;48512;48.552;9.380;2023-11-21T07:13:35;2.03;;;1.30;;
62463;SDS011;48512;48.552;9.380;2023-11-21T07:16:01;2.67;;;1.10;;
62463;SDS011;48512;48.552;9.380;2023-11-21T07:18:27;1.85;;;1.05;;
62463;SDS011;48512;48.552;9.380;2023-11-21T07:20:53;3.90;;;1.17;;
62463;SDS011;48512;48.552;9.380;2023-11-21T07:23:19;2.45;;;1.70;;
62463;SDS011;48512;48.552;9.380;2023-11-21T07:25:45;3.45;;;1.67;;
62463;SDS011;48512;48.552;9.380;2023-11-21T07:28:11;4.72;;;1.23;;
62463;SDS011;48512;48.552;9.380;2023-11-21T07:30:37;3.97;;;1.20;;
62463;SDS011;48512;48.552;9.380;2023-11-21T07:33:03;7.35;;;2.95;;
62463;SDS011;48512;48.552;9.380;2023-11-21T07:35:29;4.95;;;2.15;;
62463;SDS011;48512;48.552;9.380;2023-11-21T07:37:55;4.55;;;1.75;;
62463;SDS011;48512;48.552;9.380;2023-11-21T07:40:21;3.17;;;2.33;;
62463;SDS011;48512;48.552;9.380;2023-11-21T07:42:48;4.75;;;1.92;;
62463;SDS011;48512;48.552;9.380;2023-11-21T07:45:16;2.75;;;1.30;;
62463;SDS011;48512;48.552;9.380;2023-11-21T07:47:42;3.88;;;1.50;;
62463;SDS011;48512;48.552;9.380;2023-11-21T07:50:08;4.80;;;1.50;;
62463;SDS011;48512;48.552;9.380;2023-11-21T07:52:35;4.60;;;1.55;;
62463;SDS011;48512;48.552;9.380;2023-11-21T07:55:01;2.72;;;1.48;;
62463;SDS011;48512;48.552;9.380;2023-11-21T07:57:27;6.35;;;2.67;;
62463;SDS011;48512;48.552;9.380;2023-11-21T07:59:54;3.60;;;1.80;;
62463;SDS011;48512;48.552;9.380;2023-11-21T08:02:20;2.78;;;2.10;;
62463;SDS011;48512;48.552;9.380;2023-11-21T08:04:47;4.35;;;1.20;;
62463;SDS011;48512;48.552;9.380;2023-11-21T08:07:15;3.53;;;1.60;;
62463;SDS011;48512;48.552;9.380;2023-11-21T08:09:42;8.60;;;1.70;;
62463;SDS011;48512;48.552;9.380;2023-11-21T08:12:10;3.35;;;1.38;;
62463;SDS011;48512;48.552;9.380;2023-11-21T08:14:36;2.88;;;1.30;;
62463;SDS011;48512;48.552;9.380;2023-11-21T08:17:04;2.72;;;1.20;;
62463;SDS011;48512;48.552;9.380;2023-11-21T08:19:30;5.55;;;2.85;;
62463;SDS011;48512;48.552;9.380;2023-11-21T08:21:58;5.57;;;2.05;;
62463;SDS011;48512;48.552;9.380;2023-11-21T08:24:25;6.45;;;1.77;;
62463;SDS011;48512;48.552;9.380;2023-11-21T08:26:51;4.20;;;1.42;;
62463;SDS011;48512;48.552;9.380;2023-11-21T08:29:17;2.05;;;0.80;;
62463;SDS011;48512;48.552;9.380;2023-11-21T08:31:44;2.05;;;1.00;;
62463;SDS011;48512;48.552;9.380;2023-11-21T08:34:12;1.55;;;1.20;;
62463;SDS011;48512;48.552;9.380;2023-11-21T08:36:41;2.30;;;0.88;;
62463;SDS011;48512;48.552;9.380;2023-11-21T08:39:08;2.08;;;1.10;;
62463;SDS011;48512;48.552;9.380;2023-11-21T08:41:35;2.45;;;1.10;;
62463;SDS011;48512;48.552;9.380;2023-11-21T08:44:02;4.50;;;1.50;;
62463;SDS011;48512;48.552;9.380;2023-11-21T08:46:33;4.70;;;1.23;;
62463;SDS011;48512;48.552;9.380;2023-11-21T08:49:03;2.75;;;1.23;;
62463;SDS011;48512;48.552;9.380;2023-11-21T08:51:29;2.17;;;1.52;;
62463;SDS011;48512;48.552;9.380;2023-11-21T08:53:55;2.28;;;1.40;;
62463;SDS011;48512;48.552;9.380;2023-11-21T08:56:25;1.70;;;1.33;;
62463;SDS011;48512;48.552;9.380;2023-11-21T08:58:51;2.60;;;1.20;;
62463;SDS011;48512;48.552;9.380;2023-11-21T09:01:18;3.85;;;1.33;;
62463;SDS011;48512;48.552;9.380;2023-11-21T09:03:44;3.05;;;1.35;;
62463;SDS011;48512;48.552;9.380;2023-11-21T09:06:11;7.78;;;2.80;;
62463;SDS011;48512;48.552;9.380;2023-11-21T09:08:37;4.38;;;1.83;;
62463;SDS011;48512;48.552;9.380;2023-11-21T09:11:03;5.20;;;1.67;;
62463;SDS011;48512;48.552;9.380;2023-11-21T09:13:29;6.35;;;2.80;;
62463;SDS011;48512;48.552;9.380;2023-11-21T09:15:56;3.88;;;1.80;;
62463;SDS011;48512;48.552;9.380;2023-11-21T09:18:22;4.35;;;2.50;;
62463;SDS011;48512;48.552;9.380;2023-11-21T09:20:48;7.80;;;2.90;;
62463;SDS011;48512;48.552;9.380;2023-11-21T09:23:14;3.25;;;1.67;;
62463;SDS011;48512;48.552;9.380;2023-11-21T09:25:41;6.85;;;3.10;;
62463;SDS011;48512;48.552;9.380;2023-11-21T09:28:08;6.05;;;2.10;;
62463;SDS011;48512;48.552;9.380;2023-11-21T09:30:34;5.22;;;2.13;;
62463;SDS011;48512;48.552;9.380;2023-11-21T09:33:01;5.22;;;1.80;;
62463;SDS011;48512;48.552;9.380;2023-11-21T09:35:28;2.28;;;1.75;;
62463;SDS011;48512;48.552;9.380;2023-11-21T09:37:54;2.42;;;1.80;;
62463;SDS011;48512;48.552;9.380;2023-11-21T09:40:20;11.10;;;2.40;;
62463;SDS011;48512;48.552;9.380;2023-11-21T09:45:25;4.47;;;1.95;;
62463;SDS011;48512;48.552;9.380;2023-11-21T09:47:55;5.40;;;1.38;;
62463;SDS011;48512;48.552;9.380;2023-11-21T09:50:22;4.50;;;2.00;;
62463;SDS011;48512;48.552;9.380;2023-11-21T09:55:27;5.70;;;2.90;;
62463;SDS011;48512;48.552;9.380;2023-11-21T09:58:02;4.05;;;2.53;;
62463;SDS011;48512;48.552;9.380;2023-11-21T10:00:29;3.25;;;2.40;;
62463;SDS011;48512;48.552;9.380;2023-11-21T10:02:59;2.25;;;1.50;;
62463;SDS011;48512;48.552;9.380;2023-11-21T10:05:25;4.55;;;1.67;;
62463;SDS011;48512;48.552;9.380;2023-11-21T10:07:52;2.03;;;1.45;;
62463;SDS011;48512;48.552;9.380;2023-11-21T10:10:19;2.45;;;1.30;;
62463;SDS011;48512;48.552;9.380;2023-11-21T10:12:50;5.72;;;1.70;;
62463;SDS011;48512;48.552;9.380;2023-11-21T10:15:21;2.60;;;1.60;;
62463;SDS011;48512;48.552;9.380;2023-11-21T10:17:48;5.05;;;1.88;;
62463;SDS011;48512;48.552;9.380;2023-11-21T10:20:15;3.20;;;1.90;;
62463;SDS011;48512;48.552;9.380;2023-11-21T10:22:42;6.88;;;1.90;;
62463;SDS011;48512;48.552;9.380;2023-11-21T10:25:09;3.90;;;2.30;;
62463;SDS011;48512;48.552;9.380;2023-11-21T10:27:36;3.90;;;2.03;;
62463;SDS011;48512;48.552;9.380;2023-11-21T10:30:05;4.65;;;2.08;;
62463;SDS011;48512;48.552;9.380;2023-11-21T10:32:32;7.18;;;3.63;;
62463;SDS011;48512;48.552;9.380;2023-11-21T10:34:59;4.55;;;2.60;;
62463;SDS011;48512;48.552;9.380;2023-11-21T10:37:26;3.85;;;2.33;;
62463;SDS011;48512;48.552;9.380;2023-11-21T10:40:01;4.45;;;2.55;;
62463;SDS011;48512;48.552;9.380;2023-11-21T10:42:27;5.57;;;3.25;;
62463;SDS011;48512;48.552;9.380;2023-11-21T10:44:54;1.95;;;1.20;;
62463;SDS011;48512;48.552;9.380;2023-11-21T10:47:20;2.85;;;1.55;;
62463;SDS011;48512;48.552;9.380;2023-11-21T10:49:48;4.45;;;1.88;;
62463;SDS011;48512;48.552;9.380;2023-11-21T10:52:14;4.43;;;2.38;;
62463;SDS011;48512;48.552;9.380;2023-11-21T10:54:44;2.45;;;1.75;;
62463;SDS011;48512;48.552;9.380;2023-11-21T10:57:10;3.72;;;2.28;;
62463;SDS011;48512;48.552;9.380;2023-11-21T10:59:36;4.78;;;3.17;;
62463;SDS011;48512;48.552;9.380;2023-11-21T11:02:16;7.55;;;3.45;;
62463;SDS011;48512;48.552;9.380;2023-11-21T11:04:48;4.03;;;2.08;;
62463;SDS011;48512;48.552;9.380;2023-11-21T11:07:14;3.80;;;2.10;;
62463;SDS011;48512;48.552;9.380;2023-11-21T11:09:42;5.18;;;2.20;;
62463;SDS011;48512;48.552;9.380;2023-11-21T11:12:10;4.95;;;1.95;;
62463;SDS011;48512;48.552;9.380;2023-11-21T11:14:38;5.00;;;2.00;;
62463;SDS011;48512;48.552;9.380;2023-11-21T11:17:07;6.63;;;3.75;;
62463;SDS011;48512;48.552;9.380;2023-11-21T11:19:34;5.70;;;3.03;;
62463;SDS011;48512;48.552;9.380;2023-11-21T11:22:25;9.30;;;3.20;;
62463;SDS011;48512;48.552;9.380;2023-11-21T11:25:16;7.07;;;2.70;;
62463;SDS011;48512;48.552;9.380;2023-11-21T11:33:52;5.78;;;1.95;;
62463;SDS011;48512;48.552;9.380;2023-11-21T11:36:36;4.63;;;1.73;;
62463;SDS011;48512;48.552;9.380;2023-11-21T11:41:53;3.72;;;1.90;;
62463;SDS011;48512;48.552;9.380;2023-11-21T11:44:46;2.97;;;1.50;;
62463;SDS011;48512;48.552;9.380;2023-11-21T11:49:54;3.03;;;2.30;;
62463;SDS011;48512;48.552;9.380;2023-11-21T11:55:03;4.55;;;1.83;;
62463;SDS011;48512;48.552;9.380;2023-11-21T11:57:33;4.15;;;1.63;;
62463;SDS011;48512;48.552;9.380;2023-11-21T12:03:01;1.85;;;1.10;;
62463;SDS011;48512;48.552;9.380;2023-11-21T12:05:30;5.20;;;1.70;;
62463;SDS011;48512;48.552;9.380;2023-11-21T12:08:10;1.50;;;0.80;;
62463;SDS011;48512;48.552;9.380;2023-11-21T12:10:37;3.67;;;1.50;;
62463;SDS011;48512;48.552;9.380;2023-11-21T12:13:06;1.52;;;1.20;;
62463;SDS011;48512;48.552;9.380;2023-11-21T12:15:33;4.38;;;1.02;;
62463;SDS011;48512;48.552;9.380;2023-11-21T12:18:00;0.93;;;0.73;;
62463;SDS011;48512;48.552;9.380;2023-11-21T12:20:27;4.88;;;1.05;;
62463;SDS011;48512;48.552;9.380;2023-11-21T12:22:54;2.40;;;1.20;;
62463;SDS011;48512;48.552;9.380;2023-11-21T12:25:25;2.63;;;1.00;;
62463;SDS011;48512;48.552;9.380;2023-11-21T12:27:55;1.58;;;1.00;;
62463;SDS011;48512;48.552;9.380;2023-11-21T12:30:23;1.80;;;0.75;;
62463;SDS011;48512;48.552;9.380;2023-11-21T12:32:53;1.45;;;0.85;;
62463;SDS011;48512;48.552;9.380;2023-11-21T12:35:22;3.30;;;1.20;;
62463;SDS011;48512;48.552;9.380;2023-11-21T12:37:50;1.47;;;1.30;;
62463;SDS011;48512;48.552;9.380;2023-11-21T12:40:19;1.52;;;1.30;;
62463;SDS011;48512;48.552;9.380;2023-11-21T12:42:46;4.63;;;2.28;;
62463;SDS011;48512;48.552;9.380;2023-11-21T12:47:44;4.05;;;2.45;;
62463;SDS011;48512;48.552;9.380;2023-11-21T12:50:22;3.83;;;2.42;;
62463;SDS011;48512;48.552;9.380;2023-11-21T12:52:50;4.50;;;1.83;;
62463;SDS011;48512;48.552;9.380;2023-11-21T12:55:17;5.07;;;2.72;;
62463;SDS011;48512;48.552;9.380;2023-11-21T13:00:17;5.57;;;3.03;;
62463;SDS011;48512;48.552;9.380;2023-11-21T13:02:54;3.80;;;2.40;;
62463;SDS011;48512;48.552;9.380;2023-11-21T13:05:28;4.13;;;2.45;;
62463;SDS011;48512;48.552;9.380;2023-11-21T13:07:55;4.10;;;2.47;;
62463;SDS011;48512;48.552;9.380;2023-11-21T13:10:28;2.22;;;1.85;;
62463;SDS011;48512;48.552;9.380;2023-11-21T13:12:58;3.50;;;1.85;;
62463;SDS011;48512;48.552;9.380;2023-11-21T13:15:28;3.92;;;2.50;;
62463;SDS011;48512;48.552;9.380;2023-11-21T13:17:57;4.50;;;2.60;;
62463;SDS011;48512;48.552;9.380;2023-11-21T13:20:24;5.47;;;2.30;;
62463;SDS011;48512;48.552;9.380;2023-11-21T13:22:52;5.05;;;2.70;;
62463;SDS011;48512;48.552;9.380;2023-11-21T13:25:23;16.70;;;6.43;;
62463;SDS011;48512;48.552;9.380;2023-11-21T13:30:16;4.88;;;3.00;;
62463;SDS011;48512;48.552;9.380;2023-11-21T13:32:43;4.97;;;2.08;;
62463;SDS011;48512;48.552;9.380;2023-11-21T13:35:17;3.58;;;1.90;;
62463;SDS011;48512;48.552;9.380;2023-11-21T13:40:19;4.57;;;2.30;;
62463;SDS011;48512;48.552;9.380;2023-11-21T13:42:49;4.47;;;2.50;;
62463;SDS011;48512;48.552;9.380;2023-11-21T13:45:21;4.65;;;2.60;;
62463;SDS011;48512;48.552;9.380;2023-11-21T13:47:52;4.05;;;1.80;;
62463;SDS011;48512;48.552;9.380;2023-11-21T13:50:26;4.50;;;2.28;;
62463;SDS011;48512;48.552;9.380;2023-11-21T13:53:01;2.78;;;2.17;;
62463;SDS011;48512;48.552;9.380;2023-11-21T13:55:42;3.50;;;2.15;;
62463;SDS011;48512;48.552;9.380;2023-11-21T13:58:08;5.88;;;2.58;;
62463;SDS011;48512;48.552;9.380;2023-11-21T14:00:37;3.83;;;2.20;;
62463;SDS011;48512;48.552;9.380;2023-11-21T14:03:11;5.47;;;3.00;;
62463;SDS011;48512;48.552;9.380;2023-11-21T14:05:47;7.75;;;3.20;;
62463;SDS011;48512;48.552;9.380;2023-11-21T14:08:20;9.25;;;4.57;;
62463;SDS011;48512;48.552;9.380;2023-11-21T14:10:47;8.15;;;3.53;;
62463;SDS011;48512;48.552;9.380;2023-11-21T14:13:21;5.82;;;2.85;;
62463;SDS011;48512;48.552;9.380;2023-11-21T14:15:49;4.80;;;2.90;;
62463;SDS011;48512;48.552;9.380;2023-11-21T14:18:17;5.15;;;2.15;;
62463;SDS011;48512;48.552;9.380;2023-11-21T14:20:51;3.45;;;2.28;;
62463;SDS011;48512;48.552;9.380;2023-11-21T14:23:17;2.80;;;1.90;;
62463;SDS011;48512;48.552;9.380;2023-11-21T14:25:44;5.47;;;2.83;;
62463;SDS011;48512;48.552;9.380;2023-11-21T14:28:10;6.38;;;3.10;;
62463;SDS011;48512;48.552;9.380;2023-11-21T14:30:37;4.70;;;2.53;;
62463;SDS011;48512;48.552;9.380;2023-11-21T14:33:05;6.20;;;3.05;;
62463;SDS011;48512;48.552;9.380;2023-11-21T14:35:34;5.72;;;2.80;;
62463;SDS011;48512;48.552;9.380;2023-11-21T14:38:00;5.75;;;2.22;;
62463;SDS011;48512;48.552;9.380;2023-11-21T14:40:28;5.07;;;2.20;;
62463;SDS011;48512;48.552;9.380;2023-11-21T14:42:59;8.07;;;2.88;;
62463;SDS011;48512;48.552;9.380;2023-11-21T14:45:26;6.45;;;3.60;;
62463;SDS011;48512;48.552;9.380;2023-11-21T14:47:52;6.18;;;3.80;;
62463;SDS011;48512;48.552;9.380;2023-11-21T14:50:44;4.45;;;2.50;;
62463;SDS011;48512;48.552;9.380;2023-11-21T14:53:36;5.70;;;2.70;;
62463;SDS011;48512;48.552;9.380;2023-11-21T14:56:09;4.72;;;3.10;;
62463;SDS011;48512;48.552;9.380;2023-11-21T14:58:36;9.02;;;4.72;;
62463;SDS011;48512;48.552;9.380;2023-11-21T15:01:04;11.27;;;5.60;;
62463;SDS011;48512;48.552;9.380;2023-11-21T15:03:31;13.18;;;7.50;;
62463;SDS011;48512;48.552;9.380;2023-11-21T15:05:58;12.15;;;7.25;;
62463;SDS011;48512;48.552;9.380;2023-11-21T15:08:25;13.20;;;7.03;;
62463;SDS011;48512;48.552;9.380;2023-11-21T15:10:58;13.63;;;6.75;;
62463;SDS011;48512;48.552;9.380;2023-11-21T15:13:24;11.90;;;6.40;;
62463;SDS011;48512;48.552;9.380;2023-11-21T15:15:53;10.57;;;5.57;;
62463;SDS011;48512;48.552;9.380;2023-11-21T15:18:22;11.32;;;6.03;;
62463;SDS011;48512;48.552;9.380;2023-11-21T15:20:48;12.57;;;5.82;;
62463;SDS011;48512;48.552;9.380;2023-11-21T15:23:14;9.15;;;4.50;;
62463;SDS011;48512;48.552;9.380;2023-11-21T15:25:42;11.13;;;4.80;;
62463;SDS011;48512;48.552;9.380;2023-11-21T15:28:08;6.88;;;3.22;;